sensor_id;sensor_type;location;lat;lon;timestamp;P1;durP1;ratioP1;P2;durP2;ratioP2
32501;SDS011;18952;52.516;13.460;2024-03-02T00:00:39;78.85;;;61.20;;
32501;SDS011;18952;52.516;13.460;2024-03-02T00:03:06;79.30;;;63.40;;
32501;SDS011;18952;52.516;13.460;2024-03-02T00:05:35;83.18;;;63.97;;
32501;SDS011;18952;52.516;13.460;2024-03-02T00:08:02;71.55;;;62.47;;
32501;SDS011;18952;52.516;13.460;2024-03-02T00:10:39;77.97;;;64.57;;
32501;SDS011;18952;52.516;13.460;2024-03-02T00:13:08;78.73;;;65.13;;
32501;SDS011;18952;52.516;13.460;2024-03-02T00:15:53;74.55;;;64.32;;
32501;SDS011;18952;52.516;13.460;2024-03-02T00:18:31;78.75;;;65.15;;
32501;SDS011;18952;52.516;13.460;2024-03-02T00:21:01;77.45;;;65.30;;
32501;SDS011;18952;52.516;13.460;2024-03-02T00:23:30;79.72;;;66.13;;
32501;SDS011;18952;52.516;13.460;2024-03-02T00:25:59;76.15;;;63.47;;
32501;SDS011;18952;52.516;13.460;2024-03-02T00:28:31;83.32;;;67.53;;
32501;SDS011;18952;52.516;13.460;2024-03-02T00:31:12;81.07;;;68.15;;
32501;SDS011;18952;52.516;13.460;2024-03-02T00:33:47;84.63;;;68.28;;
32501;SDS011;18952;52.516;13.460;2024-03-02T00:36:17;79.05;;;67.30;;
32501;SDS011;18952;52.516;13.460;2024-03-02T00:38:53;86.55;;;70.82;;
32501;SDS011;18952;52.516;13.460;2024-03-02T00:41:28;77.10;;;67.75;;
32501;SDS011;18952;52.516;13.460;2024-03-02T00:43:57;86.72;;;70.47;;
32501;SDS011;18952;52.516;13.460;2024-03-02T00:46:33;87.25;;;72.15;;
32501;SDS011;18952;52.516;13.460;2024-03-02T00:49:28;82.18;;;69.28;;
32501;SDS011;18952;52.516;13.460;2024-03-02T00:51:55;84.10;;;69.65;;
32501;SDS011;18952;52.516;13.460;2024-03-02T00:54:25;79.97;;;71.07;;
32501;SDS011;18952;52.516;13.460;2024-03-02T00:56:55;90.30;;;71.55;;
32501;SDS011;18952;52.516;13.460;2024-03-02T00:59:25;79.88;;;69.38;;
32501;SDS011;18952;52.516;13.460;2024-03-02T01:01:55;83.68;;;70.45;;
32501;SDS011;18952;52.516;13.460;2024-03-02T01:04:23;85.53;;;73.35;;
32501;SDS011;18952;52.516;13.460;2024-03-02T01:06:50;84.63;;;71.87;;
32501;SDS011;18952;52.516;13.460;2024-03-02T01:09:17;81.90;;;69.53;;
32501;SDS011;18952;52.516;13.460;2024-03-02T01:11:46;82.10;;;70.30;;
32501;SDS011;18952;52.516;13.460;2024-03-02T01:14:13;87.70;;;72.88;;
32501;SDS011;18952;52.516;13.460;2024-03-02T01:16:42;83.43;;;73.70;;
32501;SDS011;18952;52.516;13.460;2024-03-02T01:19:13;86.95;;;74.78;;
32501;SDS011;18952;52.516;13.460;2024-03-02T01:21:40;89.35;;;76.32;;
32501;SDS011;18952;52.516;13.460;2024-03-02T01:24:08;90.18;;;74.20;;
32501;SDS011;18952;52.516;13.460;2024-03-02T01:26:35;85.70;;;72.78;;
32501;SDS011;18952;52.516;13.460;2024-03-02T01:29:05;88.13;;;75.63;;
32501;SDS011;18952;52.516;13.460;2024-03-02T01:31:32;89.60;;;77.43;;
32501;SDS011;18952;52.516;13.460;2024-03-02T01:33:59;92.78;;;77.05;;
32501;SDS011;18952;52.516;13.460;2024-03-02T01:36:28;90.82;;;77.05;;
32501;SDS011;18952;52.516;13.460;2024-03-02T01:38:56;91.78;;;76.47;;
32501;SDS011;18952;52.516;13.460;2024-03-02T01:41:24;85.75;;;76.22;;
32501;SDS011;18952;52.516;13.460;2024-03-02T01:43:55;90.68;;;76.28;;
32501;SDS011;18952;52.516;13.460;2024-03-02T01:46:23;94.10;;;77.82;;
32501;SDS011;18952;52.516;13.460;2024-03-02T01:48:51;91.35;;;78.22;;
32501;SDS011;18952;52.516;13.460;2024-03-02T01:51:19;92.75;;;79.63;;
32501;SDS011;18952;52.516;13.460;2024-03-02T01:53:46;93.90;;;80.30;;
32501;SDS011;18952;52.516;13.460;2024-03-02T01:56:13;91.80;;;81.38;;
32501;SDS011;18952;52.516;13.460;2024-03-02T01:58:41;99.88;;;80.68;;
32501;SDS011;18952;52.516;13.460;2024-03-02T02:01:08;102.13;;;83.47;;
32501;SDS011;18952;52.516;13.460;2024-03-02T02:03:36;100.27;;;81.93;;
32501;SDS011;18952;52.516;13.460;2024-03-02T02:06:03;102.03;;;83.35;;
32501;SDS011;18952;52.516;13.460;2024-03-02T02:08:31;100.22;;;83.50;;
32501;SDS011;18952;52.516;13.460;2024-03-02T02:10:58;91.72;;;81.38;;
32501;SDS011;18952;52.516;13.460;2024-03-02T02:13:28;97.28;;;84.63;;
32501;SDS011;18952;52.516;13.460;2024-03-02T02:16:03;92.82;;;82.32;;
32501;SDS011;18952;52.516;13.460;2024-03-02T02:18:35;103.53;;;86.40;;
32501;SDS011;18952;52.516;13.460;2024-03-02T02:21:02;99.68;;;85.10;;
32501;SDS011;18952;52.516;13.460;2024-03-02T02:23:33;98.23;;;83.30;;
32501;SDS011;18952;52.516;13.460;2024-03-02T02:26:01;97.10;;;84.57;;
32501;SDS011;18952;52.516;13.460;2024-03-02T02:28:29;93.45;;;80.93;;
32501;SDS011;18952;52.516;13.460;2024-03-02T02:30:57;106.05;;;85.28;;
32501;SDS011;18952;52.516;13.460;2024-03-02T02:33:25;93.38;;;81.80;;
32501;SDS011;18952;52.516;13.460;2024-03-02T02:35:53;98.15;;;84.28;;
32501;SDS011;18952;52.516;13.460;2024-03-02T02:38:22;96.80;;;84.87;;
32501;SDS011;18952;52.516;13.460;2024-03-02T02:40:52;102.38;;;85.20;;
32501;SDS011;18952;52.516;13.460;2024-03-02T02:43:19;103.18;;;84.25;;
32501;SDS011;18952;52.516;13.460;2024-03-02T02:45:46;100.23;;;82.77;;
32501;SDS011;18952;52.516;13.460;2024-03-02T02:48:13;93.13;;;82.90;;
32501;SDS011;18952;52.516;13.460;2024-03-02T02:50:41;100.53;;;84.63;;
32501;SDS011;18952;52.516;13.460;2024-03-02T02:53:08;98.38;;;84.22;;
32501;SDS011;18952;52.516;13.460;2024-03-02T02:55:36;95.82;;;83.32;;
32501;SDS011;18952;52.516;13.460;2024-03-02T02:58:06;99.97;;;82.30;;
32501;SDS011;18952;52.516;13.460;2024-03-02T03:00:34;97.13;;;83.38;;
32501;SDS011;18952;52.516;13.460;2024-03-02T03:03:02;92.68;;;82.50;;
32501;SDS011;18952;52.516;13.460;2024-03-02T03:05:30;91.90;;;81.93;;
32501;SDS011;18952;52.516;13.460;2024-03-02T03:07:57;92.00;;;80.88;;
32501;SDS011;18952;52.516;13.460;2024-03-02T03:10:24;95.53;;;80.22;;
32501;SDS011;18952;52.516;13.460;2024-03-02T03:12:50;93.10;;;79.72;;
32501;SDS011;18952;52.516;13.460;2024-03-02T03:15:17;89.60;;;79.35;;
32501;SDS011;18952;52.516;13.460;2024-03-02T03:17:45;91.43;;;78.10;;
32501;SDS011;18952;52.516;13.460;2024-03-02T03:20:13;90.50;;;78.32;;
32501;SDS011;18952;52.516;13.460;2024-03-02T03:22:42;97.60;;;80.00;;
32501;SDS011;18952;52.516;13.460;2024-03-02T03:25:10;86.55;;;77.00;;
32501;SDS011;18952;52.516;13.460;2024-03-02T03:27:39;87.30;;;77.82;;
32501;SDS011;18952;52.516;13.460;2024-03-02T03:30:09;95.15;;;76.45;;
32501;SDS011;18952;52.516;13.460;2024-03-02T03:33:01;85.37;;;76.10;;
32501;SDS011;18952;52.516;13.460;2024-03-02T03:35:29;83.68;;;74.55;;
32501;SDS011;18952;52.516;13.460;2024-03-02T03:37:58;93.57;;;77.78;;
32501;SDS011;18952;52.516;13.460;2024-03-02T03:40:24;98.20;;;79.25;;
32501;SDS011;18952;52.516;13.460;2024-03-02T03:42:52;86.47;;;75.60;;
32501;SDS011;18952;52.516;13.460;2024-03-02T03:45:19;85.63;;;73.00;;
32501;SDS011;18952;52.516;13.460;2024-03-02T03:47:46;90.10;;;75.68;;
32501;SDS011;18952;52.516;13.460;2024-03-02T03:50:13;87.40;;;75.00;;
32501;SDS011;18952;52.516;13.460;2024-03-02T03:52:42;84.57;;;72.05;;
32501;SDS011;18952;52.516;13.460;2024-03-02T03:55:13;90.32;;;74.43;;
32501;SDS011;18952;52.516;13.460;2024-03-02T03:57:43;81.70;;;72.80;;
32501;SDS011;18952;52.516;13.460;2024-03-02T04:00:13;86.43;;;72.68;;
32501;SDS011;18952;52.516;13.460;2024-03-02T04:02:42;81.50;;;70.13;;
32501;SDS011;18952;52.516;13.460;2024-03-02T04:05:08;83.60;;;70.63;;
32501;SDS011;18952;52.516;13.460;2024-03-02T04:07:37;81.13;;;69.10;;
32501;SDS011;18952;52.516;13.460;2024-03-02T04:10:12;77.45;;;67.95;;
32501;SDS011;18952;52.516;13.460;2024-03-02T04:12:40;76.32;;;67.93;;
32501;SDS011;18952;52.516;13.460;2024-03-02T04:15:10;79.68;;;68.30;;
32501;SDS011;18952;52.516;13.460;2024-03-02T04:17:39;80.87;;;68.80;;
32501;SDS011;18952;52.516;13.460;2024-03-02T04:20:07;77.53;;;68.93;;
32501;SDS011;18952;52.516;13.460;2024-03-02T04:22:34;77.82;;;66.40;;
32501;SDS011;18952;52.516;13.460;2024-03-02T04:25:02;79.88;;;70.38;;
32501;SDS011;18952;52.516;13.460;2024-03-02T04:27:29;77.18;;;67.00;;
32501;SDS011;18952;52.516;13.460;2024-03-02T04:29:55;78.10;;;69.05;;
32501;SDS011;18952;52.516;13.460;2024-03-02T04:32:26;78.72;;;67.60;;
32501;SDS011;18952;52.516;13.460;2024-03-02T04:34:54;81.30;;;69.18;;
32501;SDS011;18952;52.516;13.460;2024-03-02T04:37:20;76.78;;;67.10;;
32501;SDS011;18952;52.516;13.460;2024-03-02T04:39:48;81.43;;;68.00;;
32501;SDS011;18952;52.516;13.460;2024-03-02T04:42:18;80.25;;;69.60;;
32501;SDS011;18952;52.516;13.460;2024-03-02T04:44:45;85.30;;;71.00;;
32501;SDS011;18952;52.516;13.460;2024-03-02T04:47:13;82.40;;;70.40;;
32501;SDS011;18952;52.516;13.460;2024-03-02T04:49:40;77.67;;;67.57;;
32501;SDS011;18952;52.516;13.460;2024-03-02T04:52:09;79.05;;;68.53;;
32501;SDS011;18952;52.516;13.460;2024-03-02T04:54:39;85.65;;;69.07;;
32501;SDS011;18952;52.516;13.460;2024-03-02T04:57:07;86.80;;;70.90;;
32501;SDS011;18952;52.516;13.460;2024-03-02T04:59:34;81.40;;;71.03;;
32501;SDS011;18952;52.516;13.460;2024-03-02T05:02:02;78.50;;;69.47;;
32501;SDS011;18952;52.516;13.460;2024-03-02T05:04:29;77.18;;;68.72;;
32501;SDS011;18952;52.516;13.460;2024-03-02T05:06:58;79.88;;;69.75;;
32501;SDS011;18952;52.516;13.460;2024-03-02T05:09:25;85.35;;;72.05;;
32501;SDS011;18952;52.516;13.460;2024-03-02T05:11:51;83.60;;;69.90;;
32501;SDS011;18952;52.516;13.460;2024-03-02T05:14:20;81.88;;;70.22;;
32501;SDS011;18952;52.516;13.460;2024-03-02T05:16:50;83.38;;;69.75;;
32501;SDS011;18952;52.516;13.460;2024-03-02T05:19:20;84.30;;;71.00;;
32501;SDS011;18952;52.516;13.460;2024-03-02T05:21:47;84.50;;;69.55;;
32501;SDS011;18952;52.516;13.460;2024-03-02T05:24:18;77.10;;;68.28;;
32501;SDS011;18952;52.516;13.460;2024-03-02T05:26:46;82.65;;;71.90;;
32501;SDS011;18952;52.516;13.460;2024-03-02T05:29:13;88.00;;;74.57;;
32501;SDS011;18952;52.516;13.460;2024-03-02T05:31:41;82.60;;;70.20;;
32501;SDS011;18952;52.516;13.460;2024-03-02T05:34:09;80.03;;;70.47;;
32501;SDS011;18952;52.516;13.460;2024-03-02T05:36:37;75.57;;;67.32;;
32501;SDS011;18952;52.516;13.460;2024-03-02T05:39:04;83.00;;;70.68;;
32501;SDS011;18952;52.516;13.460;2024-03-02T05:41:31;80.38;;;70.97;;
32501;SDS011;18952;52.516;13.460;2024-03-02T05:43:58;79.78;;;69.63;;
32501;SDS011;18952;52.516;13.460;2024-03-02T05:46:26;82.40;;;67.95;;
32501;SDS011;18952;52.516;13.460;2024-03-02T05:48:55;79.15;;;69.13;;
32501;SDS011;18952;52.516;13.460;2024-03-02T05:51:22;79.50;;;70.03;;
32501;SDS011;18952;52.516;13.460;2024-03-02T05:53:49;80.07;;;69.10;;
32501;SDS011;18952;52.516;13.460;2024-03-02T05:56:17;76.40;;;67.65;;
32501;SDS011;18952;52.516;13.460;2024-03-02T05:58:44;81.60;;;69.35;;
32501;SDS011;18952;52.516;13.460;2024-03-02T06:01:12;82.10;;;70.45;;
32501;SDS011;18952;52.516;13.460;2024-03-02T06:03:39;82.47;;;71.35;;
32501;SDS011;18952;52.516;13.460;2024-03-02T06:06:05;84.20;;;72.32;;
32501;SDS011;18952;52.516;13.460;2024-03-02T06:08:34;85.60;;;75.75;;
32501;SDS011;18952;52.516;13.460;2024-03-02T06:11:00;89.70;;;79.15;;
32501;SDS011;18952;52.516;13.460;2024-03-02T06:13:31;93.25;;;79.25;;
32501;SDS011;18952;52.516;13.460;2024-03-02T06:16:00;89.00;;;78.03;;
32501;SDS011;18952;52.516;13.460;2024-03-02T06:18:31;93.47;;;79.22;;
32501;SDS011;18952;52.516;13.460;2024-03-02T06:21:01;88.80;;;78.20;;
32501;SDS011;18952;52.516;13.460;2024-03-02T06:23:30;92.33;;;77.90;;
32501;SDS011;18952;52.516;13.460;2024-03-02T06:26:01;91.28;;;78.38;;
32501;SDS011;18952;52.516;13.460;2024-03-02T06:28:31;97.32;;;78.10;;
32501;SDS011;18952;52.516;13.460;2024-03-02T06:31:01;90.25;;;77.97;;
32501;SDS011;18952;52.516;13.460;2024-03-02T06:33:31;95.63;;;80.32;;
32501;SDS011;18952;52.516;13.460;2024-03-02T06:35:59;92.72;;;80.78;;
32501;SDS011;18952;52.516;13.460;2024-03-02T06:38:28;94.67;;;79.80;;
32501;SDS011;18952;52.516;13.460;2024-03-02T06:40:55;89.60;;;78.43;;
32501;SDS011;18952;52.516;13.460;2024-03-02T06:43:23;97.70;;;78.53;;
32501;SDS011;18952;52.516;13.460;2024-03-02T06:45:51;91.27;;;77.73;;
32501;SDS011;18952;52.516;13.460;2024-03-02T06:48:21;95.10;;;77.10;;
32501;SDS011;18952;52.516;13.460;2024-03-02T06:50:51;86.25;;;76.72;;
32501;SDS011;18952;52.516;13.460;2024-03-02T06:53:20;91.70;;;77.63;;
32501;SDS011;18952;52.516;13.460;2024-03-02T06:55:51;87.28;;;75.95;;
32501;SDS011;18952;52.516;13.460;2024-03-02T06:58:18;92.00;;;75.93;;
32501;SDS011;18952;52.516;13.460;2024-03-02T07:00:46;90.50;;;76.35;;
32501;SDS011;18952;52.516;13.460;2024-03-02T07:03:13;88.82;;;75.75;;
32501;SDS011;18952;52.516;13.460;2024-03-02T07:05:41;86.23;;;75.87;;
32501;SDS011;18952;52.516;13.460;2024-03-02T07:08:08;94.28;;;75.40;;
32501;SDS011;18952;52.516;13.460;2024-03-02T07:10:36;89.93;;;75.57;;
32501;SDS011;18952;52.516;13.460;2024-03-02T07:13:03;84.60;;;72.47;;
32501;SDS011;18952;52.516;13.460;2024-03-02T07:15:31;82.43;;;71.20;;
32501;SDS011;18952;52.516;13.460;2024-03-02T07:17:59;92.60;;;73.57;;
32501;SDS011;18952;52.516;13.460;2024-03-02T07:20:26;88.57;;;74.50;;
32501;SDS011;18952;52.516;13.460;2024-03-02T07:22:55;91.78;;;75.47;;
32501;SDS011;18952;52.516;13.460;2024-03-02T07:25:22;86.90;;;73.00;;
32501;SDS011;18952;52.516;13.460;2024-03-02T07:27:53;83.55;;;72.90;;
32501;SDS011;18952;52.516;13.460;2024-03-02T07:30:20;83.78;;;71.40;;
32501;SDS011;18952;52.516;13.460;2024-03-02T07:32:50;83.87;;;71.83;;
32501;SDS011;18952;52.516;13.460;2024-03-02T07:35:17;82.72;;;69.20;;
32501;SDS011;18952;52.516;13.460;2024-03-02T07:37:43;83.50;;;71.38;;
32501;SDS011;18952;52.516;13.460;2024-03-02T07:40:13;77.63;;;69.25;;
32501;SDS011;18952;52.516;13.460;2024-03-02T07:42:40;86.40;;;71.22;;
32501;SDS011;18952;52.516;13.460;2024-03-02T07:45:08;86.70;;;69.10;;
32501;SDS011;18952;52.516;13.460;2024-03-02T07:47:35;75.68;;;65.93;;
32501;SDS011;18952;52.516;13.460;2024-03-02T07:50:03;81.60;;;68.83;;
32501;SDS011;18952;52.516;13.460;2024-03-02T07:52:31;78.95;;;68.20;;
32501;SDS011;18952;52.516;13.460;2024-03-02T07:54:59;75.20;;;65.93;;
32501;SDS011;18952;52.516;13.460;2024-03-02T07:57:26;80.00;;;68.28;;
32501;SDS011;18952;52.516;13.460;2024-03-02T07:59:55;94.70;;;70.63;;
32501;SDS011;18952;52.516;13.460;2024-03-02T08:02:25;80.65;;;68.28;;
32501;SDS011;18952;52.516;13.460;2024-03-02T08:04:55;78.43;;;66.45;;
32501;SDS011;18952;52.516;13.460;2024-03-02T08:07:24;75.97;;;65.97;;
32501;SDS011;18952;52.516;13.460;2024-03-02T08:09:55;82.55;;;67.40;;
32501;SDS011;18952;52.516;13.460;2024-03-02T08:12:24;75.43;;;63.80;;
32501;SDS011;18952;52.516;13.460;2024-03-02T08:14:51;76.40;;;66.55;;
32501;SDS011;18952;52.516;13.460;2024-03-02T08:17:18;74.63;;;64.22;;
32501;SDS011;18952;52.516;13.460;2024-03-02T08:19:46;77.35;;;65.90;;
32501;SDS011;18952;52.516;13.460;2024-03-02T08:22:14;73.03;;;64.50;;
32501;SDS011;18952;52.516;13.460;2024-03-02T08:24:42;75.95;;;64.13;;
32501;SDS011;18952;52.516;13.460;2024-03-02T08:27:13;77.25;;;64.88;;
32501;SDS011;18952;52.516;13.460;2024-03-02T08:29:40;75.40;;;63.90;;
32501;SDS011;18952;52.516;13.460;2024-03-02T08:32:10;80.30;;;64.78;;
32501;SDS011;18952;52.516;13.460;2024-03-02T08:34:40;76.65;;;65.10;;
32501;SDS011;18952;52.516;13.460;2024-03-02T08:37:07;77.47;;;62.47;;
32501;SDS011;18952;52.516;13.460;2024-03-02T08:39:35;71.00;;;61.13;;
32501;SDS011;18952;52.516;13.460;2024-03-02T08:42:02;69.85;;;59.80;;
32501;SDS011;18952;52.516;13.460;2024-03-02T08:44:31;67.43;;;58.90;;
32501;SDS011;18952;52.516;13.460;2024-03-02T08:46:58;67.22;;;59.03;;
32501;SDS011;18952;52.516;13.460;2024-03-02T08:49:27;66.45;;;59.20;;
32501;SDS011;18952;52.516;13.460;2024-03-02T08:51:55;73.40;;;58.58;;
32501;SDS011;18952;52.516;13.460;2024-03-02T08:54:22;67.88;;;58.17;;
32501;SDS011;18952;52.516;13.460;2024-03-02T08:56:50;72.70;;;59.13;;
32501;SDS011;18952;52.516;13.460;2024-03-02T08:59:20;70.93;;;59.95;;
32501;SDS011;18952;52.516;13.460;2024-03-02T09:01:50;66.93;;;59.60;;
32501;SDS011;18952;52.516;13.460;2024-03-02T09:04:20;73.35;;;62.03;;
32501;SDS011;18952;52.516;13.460;2024-03-02T09:06:51;70.63;;;60.80;;
32501;SDS011;18952;52.516;13.460;2024-03-02T09:09:21;71.15;;;60.60;;
32501;SDS011;18952;52.516;13.460;2024-03-02T09:11:51;69.00;;;60.73;;
32501;SDS011;18952;52.516;13.460;2024-03-02T09:14:21;68.70;;;60.22;;
32501;SDS011;18952;52.516;13.460;2024-03-02T09:16:50;72.95;;;61.55;;
32501;SDS011;18952;52.516;13.460;2024-03-02T09:19:16;72.95;;;63.05;;
32501;SDS011;18952;52.516;13.460;2024-03-02T09:21:44;75.43;;;62.37;;
32501;SDS011;18952;52.516;13.460;2024-03-02T09:24:13;74.32;;;61.80;;
32501;SDS011;18952;52.516;13.460;2024-03-02T09:26:44;71.28;;;60.65;;
32501;SDS011;18952;52.516;13.460;2024-03-02T09:29:11;66.53;;;59.27;;
32501;SDS011;18952;52.516;13.460;2024-03-02T09:31:43;72.75;;;60.35;;
32501;SDS011;18952;52.516;13.460;2024-03-02T09:34:12;67.90;;;59.65;;
32501;SDS011;18952;52.516;13.460;2024-03-02T09:36:43;64.88;;;57.75;;
32501;SDS011;18952;52.516;13.460;2024-03-02T09:39:14;67.95;;;56.45;;
32501;SDS011;18952;52.516;13.460;2024-03-02T09:41:42;74.70;;;56.53;;
32501;SDS011;18952;52.516;13.460;2024-03-02T09:44:11;65.25;;;53.72;;
32501;SDS011;18952;52.516;13.460;2024-03-02T09:46:38;61.42;;;53.70;;
32501;SDS011;18952;52.516;13.460;2024-03-02T09:49:04;62.35;;;53.63;;
32501;SDS011;18952;52.516;13.460;2024-03-02T09:51:32;65.53;;;52.65;;
32501;SDS011;18952;52.516;13.460;2024-03-02T09:54:00;59.17;;;52.15;;
32501;SDS011;18952;52.516;13.460;2024-03-02T09:56:44;59.50;;;51.63;;
32501;SDS011;18952;52.516;13.460;2024-03-02T09:59:11;59.03;;;50.03;;
32501;SDS011;18952;52.516;13.460;2024-03-02T10:01:40;56.97;;;49.97;;
32501;SDS011;18952;52.516;13.460;2024-03-02T10:04:23;57.10;;;50.28;;
32501;SDS011;18952;52.516;13.460;2024-03-02T10:07:16;60.17;;;48.77;;
32501;SDS011;18952;52.516;13.460;2024-03-02T10:09:45;54.53;;;48.15;;
32501;SDS011;18952;52.516;13.460;2024-03-02T10:12:14;58.95;;;47.45;;
32501;SDS011;18952;52.516;13.460;2024-03-02T10:14:44;56.78;;;48.72;;
32501;SDS011;18952;52.516;13.460;2024-03-02T10:17:14;55.38;;;47.08;;
32501;SDS011;18952;52.516;13.460;2024-03-02T10:19:44;55.90;;;46.35;;
32501;SDS011;18952;52.516;13.460;2024-03-02T10:22:12;54.00;;;45.03;;
32501;SDS011;18952;52.516;13.460;2024-03-02T10:24:42;57.05;;;44.45;;
32501;SDS011;18952;52.516;13.460;2024-03-02T10:27:26;56.90;;;44.63;;
32501;SDS011;18952;52.516;13.460;2024-03-02T10:29:55;50.85;;;42.47;;
32501;SDS011;18952;52.516;13.460;2024-03-02T10:32:24;53.17;;;43.03;;
32501;SDS011;18952;52.516;13.460;2024-03-02T10:34:55;49.22;;;43.92;;
32501;SDS011;18952;52.516;13.460;2024-03-02T10:37:24;52.05;;;41.42;;
32501;SDS011;18952;52.516;13.460;2024-03-02T10:39:52;43.92;;;39.15;;
32501;SDS011;18952;52.516;13.460;2024-03-02T10:42:18;53.25;;;39.88;;
32501;SDS011;18952;52.516;13.460;2024-03-02T10:44:47;44.90;;;37.00;;
32501;SDS011;18952;52.516;13.460;2024-03-02T10:47:14;47.72;;;36.30;;
32501;SDS011;18952;52.516;13.460;2024-03-02T10:49:45;45.13;;;35.15;;
32501;SDS011;18952;52.516;13.460;2024-03-02T10:52:19;39.70;;;32.47;;
32501;SDS011;18952;52.516;13.460;2024-03-02T10:54:46;39.65;;;32.92;;
32501;SDS011;18952;52.516;13.460;2024-03-02T10:57:17;40.92;;;32.00;;
32501;SDS011;18952;52.516;13.460;2024-03-02T11:00:00;39.10;;;32.25;;
32501;SDS011;18952;52.516;13.460;2024-03-02T11:02:30;34.65;;;30.90;;
32501;SDS011;18952;52.516;13.460;2024-03-02T11:05:01;37.03;;;30.92;;
32501;SDS011;18952;52.516;13.460;2024-03-02T11:07:37;33.97;;;29.55;;
32501;SDS011;18952;52.516;13.460;2024-03-02T11:10:07;37.67;;;29.05;;
32501;SDS011;18952;52.516;13.460;2024-03-02T11:12:39;34.23;;;28.73;;
32501;SDS011;18952;52.516;13.460;2024-03-02T11:15:18;37.50;;;30.02;;
32501;SDS011;18952;52.516;13.460;2024-03-02T11:17:46;39.97;;;29.07;;
32501;SDS011;18952;52.516;13.460;2024-03-02T11:20:16;33.97;;;28.02;;
32501;SDS011;18952;52.516;13.460;2024-03-02T11:22:44;35.15;;;28.88;;
32501;SDS011;18952;52.516;13.460;2024-03-02T11:25:26;36.97;;;29.33;;
32501;SDS011;18952;52.516;13.460;2024-03-02T11:33:06;36.38;;;29.35;;
32501;SDS011;18952;52.516;13.460;2024-03-02T11:35:36;34.97;;;29.83;;
32501;SDS011;18952;52.516;13.460;2024-03-02T11:38:04;35.17;;;30.60;;
32501;SDS011;18952;52.516;13.460;2024-03-02T11:40:34;36.50;;;30.13;;
32501;SDS011;18952;52.516;13.460;2024-03-02T11:43:01;34.60;;;29.50;;
32501;SDS011;18952;52.516;13.460;2024-03-02T11:45:30;36.53;;;29.42;;
32501;SDS011;18952;52.516;13.460;2024-03-02T11:47:57;37.25;;;29.60;;
32501;SDS011;18952;52.516;13.460;2024-03-02T11:50:34;33.75;;;28.75;;
32501;SDS011;18952;52.516;13.460;2024-03-02T11:53:19;37.25;;;31.17;;
32501;SDS011;18952;52.516;13.460;2024-03-02T11:55:47;37.28;;;29.15;;
32501;SDS011;18952;52.516;13.460;2024-03-02T11:58:17;34.67;;;30.17;;
32501;SDS011;18952;52.516;13.460;2024-03-02T12:00:44;32.67;;;28.83;;
32501;SDS011;18952;52.516;13.460;2024-03-02T12:03:14;35.42;;;29.70;;
32501;SDS011;18952;52.516;13.460;2024-03-02T12:05:42;36.72;;;29.05;;
32501;SDS011;18952;52.516;13.460;2024-03-02T12:08:11;35.00;;;30.07;;
32501;SDS011;18952;52.516;13.460;2024-03-02T12:10:39;36.00;;;28.65;;
32501;SDS011;18952;52.516;13.460;2024-03-02T12:13:07;36.47;;;28.30;;
32501;SDS011;18952;52.516;13.460;2024-03-02T12:15:37;34.50;;;28.03;;
32501;SDS011;18952;52.516;13.460;2024-03-02T12:18:06;36.78;;;28.38;;
32501;SDS011;18952;52.516;13.460;2024-03-02T12:20:33;32.83;;;27.55;;
32501;SDS011;18952;52.516;13.460;2024-03-02T12:23:01;31.13;;;24.58;;
32501;SDS011;18952;52.516;13.460;2024-03-02T12:25:32;28.13;;;25.05;;
32501;SDS011;18952;52.516;13.460;2024-03-02T12:28:03;28.95;;;23.20;;
32501;SDS011;18952;52.516;13.460;2024-03-02T12:30:32;31.55;;;24.92;;
32501;SDS011;18952;52.516;13.460;2024-03-02T12:33:03;32.65;;;25.33;;
32501;SDS011;18952;52.516;13.460;2024-03-02T12:35:34;30.85;;;25.00;;
32501;SDS011;18952;52.516;13.460;2024-03-02T12:38:02;33.53;;;25.25;;
32501;SDS011;18952;52.516;13.460;2024-03-02T12:40:31;33.15;;;26.23;;
32501;SDS011;18952;52.516;13.460;2024-03-02T12:42:58;32.08;;;25.20;;
32501;SDS011;18952;52.516;13.460;2024-03-02T12:45:26;35.50;;;26.10;;
32501;SDS011;18952;52.516;13.460;2024-03-02T12:47:54;30.95;;;25.10;;
32501;SDS011;18952;52.516;13.460;2024-03-02T12:50:22;29.25;;;24.38;;
32501;SDS011;18952;52.516;13.460;2024-03-02T12:52:52;26.90;;;23.77;;
32501;SDS011;18952;52.516;13.460;2024-03-02T12:55:22;35.20;;;22.95;;
32501;SDS011;18952;52.516;13.460;2024-03-02T12:57:51;27.20;;;21.08;;
32501;SDS011;18952;52.516;13.460;2024-03-02T13:00:20;22.67;;;19.55;;
32501;SDS011;18952;52.516;13.460;2024-03-02T13:02:50;28.02;;;20.48;;
32501;SDS011;18952;52.516;13.460;2024-03-02T13:05:18;22.85;;;19.42;;
32501;SDS011;18952;52.516;13.460;2024-03-02T13:07:52;27.45;;;18.92;;
32501;SDS011;18952;52.516;13.460;2024-03-02T13:10:19;23.48;;;19.75;;
32501;SDS011;18952;52.516;13.460;2024-03-02T13:12:47;26.05;;;20.75;;
32501;SDS011;18952;52.516;13.460;2024-03-02T13:15:14;24.98;;;20.45;;
32501;SDS011;18952;52.516;13.460;2024-03-02T13:17:45;27.95;;;22.00;;
32501;SDS011;18952;52.516;13.460;2024-03-02T13:20:15;31.67;;;22.40;;
32501;SDS011;18952;52.516;13.460;2024-03-02T13:22:45;26.55;;;21.50;;
32501;SDS011;18952;52.516;13.460;2024-03-02T13:25:12;27.90;;;21.33;;
32501;SDS011;18952;52.516;13.460;2024-03-02T13:27:40;25.02;;;22.17;;
32501;SDS011;18952;52.516;13.460;2024-03-02T13:30:07;27.65;;;23.15;;
32501;SDS011;18952;52.516;13.460;2024-03-02T13:32:36;25.13;;;22.30;;
32501;SDS011;18952;52.516;13.460;2024-03-02T13:35:03;27.08;;;22.45;;
32501;SDS011;18952;52.516;13.460;2024-03-02T13:37:32;25.48;;;21.73;;
32501;SDS011;18952;52.516;13.460;2024-03-02T13:39:58;25.80;;;21.38;;
32501;SDS011;18952;52.516;13.460;2024-03-02T13:42:25;26.03;;;21.27;;
32501;SDS011;18952;52.516;13.460;2024-03-02T13:44:55;25.23;;;21.10;;
32501;SDS011;18952;52.516;13.460;2024-03-02T13:47:25;25.80;;;20.92;;
32501;SDS011;18952;52.516;13.460;2024-03-02T13:49:53;24.50;;;20.55;;
32501;SDS011;18952;52.516;13.460;2024-03-02T13:52:21;22.43;;;18.10;;
32501;SDS011;18952;52.516;13.460;2024-03-02T13:54:48;23.48;;;19.02;;
32501;SDS011;18952;52.516;13.460;2024-03-02T13:57:15;23.83;;;19.45;;
32501;SDS011;18952;52.516;13.460;2024-03-02T13:59:45;22.17;;;18.45;;
32501;SDS011;18952;52.516;13.460;2024-03-02T14:02:17;23.20;;;17.98;;
32501;SDS011;18952;52.516;13.460;2024-03-02T14:04:43;21.83;;;16.80;;
32501;SDS011;18952;52.516;13.460;2024-03-02T14:07:11;22.10;;;16.03;;
32501;SDS011;18952;52.516;13.460;2024-03-02T14:09:39;20.40;;;16.63;;
32501;SDS011;18952;52.516;13.460;2024-03-02T14:12:06;20.23;;;15.55;;
32501;SDS011;18952;52.516;13.460;2024-03-02T14:14:35;21.00;;;16.00;;
32501;SDS011;18952;52.516;13.460;2024-03-02T14:17:02;23.25;;;17.40;;
32501;SDS011;18952;52.516;13.460;2024-03-02T14:19:29;25.60;;;17.83;;
32501;SDS011;18952;52.516;13.460;2024-03-02T14:21:56;22.45;;;17.52;;
32501;SDS011;18952;52.516;13.460;2024-03-02T14:24:25;26.85;;;17.98;;